MASCOMA R @ MASCOMA: From 07/08/2018 10:00 to 07/22/2018 22:00

Date STAGE [FT] FLOW [CFS] LAKE ELEVATION [FT] PRECIPITATION INCREMENT [IN] AIR TEMPERATURE [F]
07/22/2018 17:00 -- -- -- 0.00 --
07/22/2018 16:00 2.12 48.1 750.01 0.00 70.2
07/22/2018 15:00 2.11 47.1 750.01 0.00 69.0
07/22/2018 14:00 2.10 46.1 750.01 0.01 66.5
07/22/2018 13:00 2.11 47.1 750.01 0.00 66.5
07/22/2018 12:00 2.07 43.2 750.00 0.03 64.7
07/22/2018 11:00 2.07 43.2 750.01 0.00 63.8
07/22/2018 10:00 2.09 45.1 750.01 0.00 65.3
07/22/2018 09:00 2.09 45.1 750.01 0.00 64.2
07/22/2018 08:00 2.02 38.7 749.99 0.00 61.8
07/22/2018 07:00 2.05 41.4 750.00 0.00 60.8
07/22/2018 06:00 2.09 45.1 750.01 0.00 61.6
07/22/2018 05:00 2.05 41.4 750.00 0.00 61.2
07/22/2018 04:00 2.06 42.3 750.01 0.00 60.5
07/22/2018 03:00 2.04 40.5 750.00 0.00 60.3
07/22/2018 02:00 2.06 42.3 750.01 0.00 60.4
07/22/2018 01:00 2.07 43.2 750.01 0.00 61.4
07/22/2018 00:00 2.05 41.4 750.01 0.00 62.9
07/21/2018 23:00 2.06 42.3 750.01 0.00 65.4
07/21/2018 22:00 2.09 45.1 750.01 0.00 69.2
07/21/2018 21:00 2.09 45.1 750.01 0.00 71.8
07/21/2018 20:00 2.11 47.1 750.02 0.00 74.3
07/21/2018 19:00 2.11 47.1 750.02 0.00 76.0
07/21/2018 18:00 2.08 44.2 750.01 0.00 77.0
07/21/2018 17:00 2.10 46.1 750.01 0.00 76.3
07/21/2018 16:00 2.10 46.1 750.02 0.00 75.6
07/21/2018 15:00 2.11 47.1 750.02 0.00 75.1
07/21/2018 14:00 2.09 45.1 750.01 0.00 74.2
07/21/2018 13:00 2.11 47.1 750.02 0.00 73.4
07/21/2018 12:00 2.09 45.1 750.02 0.00 72.4
07/21/2018 11:00 2.08 44.2 750.01 0.00 70.2
07/21/2018 10:00 2.08 44.2 750.01 0.00 67.2
07/21/2018 09:00 2.09 45.1 750.02 0.00 63.4
07/21/2018 08:00 2.09 45.1 750.02 0.00 61.0
07/21/2018 07:00 2.08 44.2 750.01 0.00 59.3
07/21/2018 06:00 2.08 44.2 750.02 0.00 59.4
07/21/2018 05:00 2.08 44.2 750.02 0.00 60.3
07/21/2018 04:00 2.09 45.1 750.02 0.00 61.9
07/21/2018 03:00 2.08 44.2 750.02 0.00 62.1
07/21/2018 02:00 2.08 44.2 750.02 0.00 64.7
07/21/2018 01:00 2.09 45.1 750.02 0.00 67.7
07/21/2018 00:00 2.10 46.1 750.03 0.00 70.0
07/20/2018 23:00 2.10 46.1 750.03 0.00 71.4
07/20/2018 22:00 2.10 46.1 750.02 0.00 72.0
07/20/2018 21:00 2.08 44.2 750.02 0.00 75.3
07/20/2018 20:00 2.10 46.1 750.03 0.00 80.2
07/20/2018 19:00 2.11 47.1 750.03 0.00 81.4
07/20/2018 18:00 2.10 46.1 750.03 0.00 81.9
07/20/2018 17:00 2.10 46.1 750.03 0.00 81.6
07/20/2018 16:00 2.09 45.1 750.03 0.00 81.2
07/20/2018 15:00 2.10 46.1 750.03 0.00 80.2
07/20/2018 14:00 2.10 46.1 750.03 0.00 78.9
07/20/2018 13:00 2.10 46.1 750.03 0.00 77.9
07/20/2018 12:00 2.11 47.1 750.03 0.00 74.2
07/20/2018 11:00 2.11 47.1 750.03 0.00 69.1
07/20/2018 10:00 2.11 47.1 750.03 0.00 66.6
07/20/2018 09:00 2.11 47.1 750.03 0.00 61.5
07/20/2018 08:00 2.10 46.1 750.03 0.00 56.7
07/20/2018 07:00 2.12 48.1 750.03 0.00 55.7
07/20/2018 06:00 2.12 48.1 750.03 0.00 55.0
07/20/2018 05:00 2.12 48.1 750.03 0.00 56.4
07/20/2018 04:00 2.12 48.1 750.03 0.00 56.5
07/20/2018 03:00 2.12 48.1 750.03 0.00 57.5
07/20/2018 02:00 2.11 47.1 750.03 0.00 58.0
07/20/2018 01:00 2.11 47.1 750.03 0.00 58.8
07/20/2018 00:00 2.12 48.1 750.03 0.00 59.7
07/19/2018 23:00 2.12 48.1 750.03 0.00 61.8
07/19/2018 22:00 2.11 47.1 750.03 0.00 64.3
07/19/2018 21:00 2.11 47.1 750.03 0.00 69.1
07/19/2018 20:00 2.10 46.1 750.03 0.00 76.5
07/19/2018 19:00 2.09 45.1 750.03 0.00 80.8
07/19/2018 18:00 2.09 45.1 750.03 0.00 81.9
07/19/2018 17:00 2.10 46.1 750.03 0.00 78.3
07/19/2018 16:00 2.10 46.1 750.03 0.00 75.6
07/19/2018 15:00 2.11 47.1 750.03 0.00 75.2
07/19/2018 14:00 2.11 47.1 750.03 0.00 74.8
07/19/2018 13:00 2.12 48.1 750.03 0.00 75.8
07/19/2018 12:00 2.13 49.1 750.03 0.00 73.8
07/19/2018 11:00 2.13 49.1 750.03 0.00 68.2
07/19/2018 10:00 2.14 50.1 750.04 0.00 64.3
07/19/2018 09:00 2.13 49.1 750.04 0.00 57.8
07/19/2018 08:00 2.13 49.1 750.03 0.00 59.0
07/19/2018 07:00 2.13 49.1 750.04 0.00 50.0
07/19/2018 06:00 2.13 49.1 750.03 0.00 49.9
07/19/2018 05:00 2.13 49.1 750.03 0.00 50.6
07/19/2018 04:00 2.13 49.1 750.04 0.00 51.4
07/19/2018 03:00 2.14 50.1 750.04 0.00 52.6
07/19/2018 02:00 2.13 49.1 750.04 0.00 53.8
07/19/2018 01:00 2.12 48.1 750.03 0.00 55.3
07/19/2018 00:00 2.14 50.1 750.04 0.00 57.2
07/18/2018 23:00 2.13 49.1 750.03 0.00 58.7
07/18/2018 22:00 2.12 48.1 750.03 0.00 61.4
07/18/2018 21:00 2.09 45.1 750.03 0.00 66.6
07/18/2018 20:00 2.09 45.1 750.03 0.00 72.4
07/18/2018 19:00 2.09 45.1 750.03 0.00 75.6
07/18/2018 18:00 2.06 42.3 750.02 0.00 76.4
07/18/2018 17:00 2.07 43.2 750.02 0.00 76.3
07/18/2018 16:00 2.08 44.2 750.02 0.00 75.3
07/18/2018 15:00 2.09 45.1 750.03 0.00 74.9
07/18/2018 14:00 2.10 46.1 750.03 0.00 74.4
07/18/2018 13:00 2.13 49.1 750.03 0.00 72.1
07/18/2018 12:00 2.13 49.1 750.04 0.00 71.2
07/18/2018 11:00 2.13 49.1 750.04 0.00 68.9
07/18/2018 10:00 2.13 49.1 750.04 0.00 66.2
07/18/2018 09:00 2.13 49.1 750.04 0.00 67.6
07/18/2018 08:00 2.13 49.1 750.04 0.00 68.8
07/18/2018 07:00 2.13 49.1 750.04 0.01 60.1
07/18/2018 06:00 2.11 47.1 750.04 0.00 61.6
07/18/2018 05:00 2.10 46.1 750.04 0.00 63.8
07/18/2018 04:00 2.13 49.1 750.04 0.00 65.2
07/18/2018 03:00 2.13 49.1 750.04 0.00 66.8
07/18/2018 02:00 2.13 49.1 750.04 0.00 67.6
07/18/2018 01:00 2.14 50.1 750.05 0.00 68.5
07/18/2018 00:00 2.13 49.1 750.05 0.00 68.0
07/17/2018 23:00 2.12 48.1 750.04 0.00 68.3
07/17/2018 22:00 2.12 48.1 750.04 0.00 69.0
07/17/2018 21:00 2.14 50.1 750.05 0.02 70.3
07/17/2018 20:00 2.15 51.1 750.05 0.00 72.5
07/17/2018 19:00 2.15 51.1 750.06 0.00 73.9
07/17/2018 18:00 2.13 49.1 750.05 0.00 72.9
07/17/2018 17:00 2.15 51.1 750.06 0.00 72.7
07/17/2018 16:00 2.16 52.2 750.06 0.00 74.8
07/17/2018 15:00 2.13 49.1 750.05 0.01 73.2
07/17/2018 14:00 2.14 50.1 750.06 0.01 72.1
07/17/2018 13:00 2.14 50.1 750.06 0.07 72.7
07/17/2018 12:00 2.12 48.1 750.04 0.21 71.1
07/17/2018 11:00 2.05 41.4 750.02 0.65 72.5
07/17/2018 10:00 2.06 42.3 750.02 0.03 72.9
07/17/2018 09:00 2.06 42.3 750.02 0.03 73.4
07/17/2018 08:00 2.06 42.3 750.02 0.03 74.0
07/17/2018 07:00 2.06 42.3 750.02 0.03 74.5
07/17/2018 06:00 2.06 42.3 750.02 0.03 75.0
07/17/2018 05:00 2.06 42.3 750.02 0.03 75.6
07/17/2018 04:00 2.06 42.3 750.02 0.03 76.1
07/17/2018 03:00 2.06 42.3 750.02 0.03 76.7
07/17/2018 02:00 2.06 42.3 750.02 0.03 77.2
07/17/2018 01:00 2.06 42.3 750.02 0.03 77.7
07/17/2018 00:00 2.06 42.3 750.02 0.03 78.3
07/16/2018 23:00 2.06 42.3 750.02 0.00 78.8
07/16/2018 22:00 2.04 40.5 750.01 0.00 76.0
07/16/2018 21:00 2.03 39.6 750.01 0.00 78.3
07/16/2018 20:00 2.03 39.6 750.01 0.00 83.3
07/16/2018 19:00 2.03 39.6 750.01 0.00 87.9
07/16/2018 18:00 2.03 39.6 750.01 0.00 86.6
07/16/2018 17:00 2.02 38.7 750.01 0.00 85.9
07/16/2018 16:00 2.03 39.6 750.01 0.00 89.5
07/16/2018 15:00 2.03 39.6 750.01 0.00 87.6
07/16/2018 14:00 2.03 39.6 750.01 0.00 87.1
07/16/2018 13:00 2.03 39.6 750.01 0.00 83.2
07/16/2018 12:00 2.04 40.5 750.01 0.00 77.8
07/16/2018 11:00 2.04 40.5 750.01 0.00 74.9
07/16/2018 10:00 2.04 40.5 750.01 0.00 71.0
07/16/2018 09:00 2.04 40.5 750.01 0.00 67.1
07/16/2018 08:00 2.05 41.4 750.01 0.00 65.3
07/16/2018 07:00 2.05 41.4 750.01 0.00 61.6
07/16/2018 06:00 2.03 39.6 750.01 0.00 61.9
07/16/2018 05:00 2.05 41.4 750.01 0.00 61.7
07/16/2018 04:00 2.04 40.5 750.01 0.00 62.4
07/16/2018 03:00 2.04 40.5 750.01 0.00 63.1
07/16/2018 02:00 2.04 40.5 750.01 0.00 63.9
07/16/2018 01:00 2.04 40.5 750.01 0.00 65.7
07/16/2018 00:00 2.04 40.5 750.01 0.00 67.3
07/15/2018 23:00 2.04 40.5 750.01 0.00 70.1
07/15/2018 22:00 2.04 40.5 750.01 0.00 73.4
07/15/2018 21:00 2.04 40.5 750.01 0.00 78.4
07/15/2018 20:00 2.03 39.6 750.01 0.00 85.1
07/15/2018 19:00 2.03 39.6 750.01 0.00 87.1
07/15/2018 18:00 2.04 40.5 750.01 0.00 84.9
07/15/2018 17:00 2.04 40.5 750.01 0.00 85.2
07/15/2018 16:00 2.03 39.6 750.01 0.00 80.6
07/15/2018 15:00 2.03 39.6 750.01 0.01 79.9
07/15/2018 14:00 2.04 40.5 750.01 0.00 86.2
07/15/2018 13:00 2.04 40.5 750.01 0.00 80.6
07/15/2018 12:00 2.06 42.3 750.02 0.00 74.0
07/15/2018 11:00 2.04 40.5 750.01 0.00 70.1
07/15/2018 10:00 2.05 41.4 750.01 0.00 66.6
07/15/2018 09:00 2.06 42.3 750.02 0.00 65.2
07/15/2018 08:00 2.03 39.6 750.01 0.00 65.4
07/15/2018 07:00 2.05 41.4 750.01 0.00 65.0
07/15/2018 06:00 2.05 41.4 750.02 0.00 65.3
07/15/2018 05:00 2.06 42.3 750.02 0.00 65.2
07/15/2018 04:00 2.05 41.4 750.01 0.00 65.1
07/15/2018 03:00 2.06 42.3 750.02 0.00 65.3
07/15/2018 02:00 2.07 43.2 750.02 0.00 65.5
07/15/2018 01:00 2.07 43.2 750.02 0.00 66.3
07/15/2018 00:00 2.07 43.2 750.02 0.00 67.6
07/14/2018 23:00 2.07 43.2 750.02 0.00 68.3
07/14/2018 22:00 2.08 44.2 750.02 0.00 68.9
07/14/2018 21:00 2.07 43.2 750.02 0.00 69.9
07/14/2018 20:00 2.08 44.2 750.02 0.00 70.8
07/14/2018 19:00 2.08 44.2 750.02 0.00 70.5
07/14/2018 18:00 2.08 44.2 750.02 0.03 69.7
07/14/2018 17:00 2.10 46.1 750.02 0.00 71.4
07/14/2018 16:00 2.12 48.1 750.03 0.00 71.3
07/14/2018 15:00 2.11 47.1 750.02 0.00 69.3
07/14/2018 14:00 2.11 47.1 750.03 0.00 68.8
07/14/2018 13:00 2.08 44.2 750.02 0.00 67.2
07/14/2018 12:00 2.08 44.2 750.02 0.00 64.3
07/14/2018 11:00 2.08 44.2 750.02 0.00 63.9
07/14/2018 10:00 2.06 42.3 750.02 0.00 62.8
07/14/2018 09:00 2.07 43.2 750.02 0.00 62.8
07/14/2018 08:00 2.09 45.1 750.03 0.00 62.4
07/14/2018 07:00 2.10 46.1 750.03 0.00 62.2
07/14/2018 06:00 2.10 46.1 750.03 0.00 62.3
07/14/2018 05:00 2.08 44.2 750.03 0.00 62.0
07/14/2018 04:00 2.09 45.1 750.03 0.00 61.9
07/14/2018 03:00 2.09 45.1 750.03 0.00 61.8
07/14/2018 02:00 2.09 45.1 750.03 0.00 62.6
07/14/2018 01:00 2.12 48.1 750.04 0.00 64.2
07/14/2018 00:00 2.13 49.1 750.04 0.00 66.3
07/13/2018 23:00 2.13 49.1 750.04 0.00 68.2
07/13/2018 22:00 2.13 49.1 750.04 0.00 71.4
07/13/2018 21:00 2.13 49.1 750.04 0.00 74.3
07/13/2018 20:00 2.09 45.1 750.03 0.00 79.3
07/13/2018 19:00 2.09 45.1 750.03 0.00 80.9
07/13/2018 18:00 2.09 45.1 750.03 0.00 82.5
07/13/2018 17:00 2.09 45.1 750.03 0.00 83.4
07/13/2018 16:00 2.10 46.1 750.04 0.00 81.0
07/13/2018 15:00 2.10 46.1 750.04 0.00 77.9
07/13/2018 14:00 2.11 47.1 750.04 0.00 76.6
07/13/2018 13:00 2.12 48.1 750.04 0.00 75.2
07/13/2018 12:00 2.12 48.1 750.04 0.00 74.3
07/13/2018 11:00 2.12 48.1 750.04 0.00 72.4
07/13/2018 10:00 2.12 48.1 750.04 0.00 71.0
07/13/2018 09:00 2.12 48.1 750.04 0.00 66.7
07/13/2018 08:00 2.12 48.1 750.04 0.00 59.7
07/13/2018 07:00 2.13 49.1 750.04 0.00 58.0
07/13/2018 06:00 2.12 48.1 750.04 0.00 57.5
07/13/2018 05:00 2.13 49.1 750.04 0.00 58.5
07/13/2018 04:00 2.13 49.1 750.04 0.00 59.3
07/13/2018 03:00 2.12 48.1 750.04 0.00 60.6
07/13/2018 02:00 2.13 49.1 750.04 0.00 61.6
07/13/2018 01:00 2.13 49.1 750.04 0.00 63.3
07/13/2018 00:00 2.13 49.1 750.04 0.00 65.5
07/12/2018 23:00 2.13 49.1 750.04 0.00 65.4
07/12/2018 22:00 2.13 49.1 750.04 0.00 66.1
07/12/2018 21:00 2.13 49.1 750.04 0.00 69.3
07/12/2018 20:00 2.13 49.1 750.04 0.00 73.8
07/12/2018 19:00 2.13 49.1 750.05 0.00 77.8
07/12/2018 18:00 2.13 49.1 750.04 0.00 77.2
07/12/2018 17:00 2.13 49.1 750.04 0.00 77.3
07/12/2018 16:00 2.14 50.1 750.05 0.00 75.9
07/12/2018 15:00 2.14 50.1 750.05 0.00 77.1
07/12/2018 14:00 2.15 51.1 750.05 0.00 78.4
07/12/2018 13:00 2.15 51.1 750.05 0.00 78.3
07/12/2018 12:00 2.15 51.1 750.05 0.00 71.6
07/12/2018 11:00 2.15 51.1 750.05 0.00 71.7
07/12/2018 10:00 2.16 52.2 750.05 0.00 66.7
07/12/2018 09:00 2.15 51.1 750.05 0.00 61.9
07/12/2018 08:00 2.17 53.2 750.05 0.00 62.7
07/12/2018 07:00 2.15 51.1 750.05 0.00 53.3
07/12/2018 06:00 2.16 52.2 750.05 0.00 52.9
07/12/2018 05:00 2.17 53.2 750.05 0.00 53.6
07/12/2018 04:00 2.17 53.2 750.05 0.00 54.3
07/12/2018 03:00 2.17 53.2 750.05 0.00 55.8
07/12/2018 02:00 2.16 52.2 750.05 0.00 57.4
07/12/2018 01:00 2.17 53.2 750.06 0.00 60.3
07/12/2018 00:00 2.17 53.2 750.06 0.00 64.7
07/11/2018 23:00 2.17 53.2 750.06 0.00 62.1
07/11/2018 22:00 2.16 52.2 750.05 0.00 65.2
07/11/2018 21:00 2.16 52.2 750.06 0.00 70.3
07/11/2018 20:00 2.15 51.1 750.06 0.00 75.9
07/11/2018 19:00 2.15 51.1 750.06 0.00 79.4
07/11/2018 18:00 2.16 52.2 750.06 0.00 81.1
07/11/2018 17:00 2.15 51.1 750.06 0.00 79.8
07/11/2018 16:00 2.17 53.2 750.06 0.00 80.4
07/11/2018 15:00 2.18 54.3 750.07 0.00 78.6
07/11/2018 14:00 2.20 56.4 750.07 0.00 75.9
07/11/2018 13:00 2.19 55.3 750.07 0.00 73.2
07/11/2018 12:00 2.18 54.3 750.07 0.00 74.1
07/11/2018 11:00 2.21 57.5 750.07 0.00 71.1
07/11/2018 10:00 2.22 58.6 750.07 0.00 66.1
07/11/2018 09:00 2.20 56.4 750.07 0.00 64.8
07/11/2018 08:00 2.20 56.4 750.07 0.00 64.6
07/11/2018 07:00 2.21 57.5 750.07 0.00 63.6
07/11/2018 06:00 2.21 57.5 750.08 0.00 63.1
07/11/2018 05:00 2.23 59.7 750.08 0.00 64.8
07/11/2018 04:00 2.23 59.7 750.08 0.00 64.9
07/11/2018 03:00 2.24 60.8 750.08 0.00 66.3
07/11/2018 02:00 2.21 57.5 750.08 0.00 65.0
07/11/2018 01:00 2.22 58.6 750.08 0.01 65.4
07/11/2018 00:00 2.23 59.7 750.08 0.00 65.8
07/10/2018 23:00 2.23 59.7 750.08 0.00 66.1
07/10/2018 22:00 2.22 58.6 750.08 0.01 68.3
07/10/2018 21:00 2.22 58.6 750.08 0.01 70.4
07/10/2018 20:00 2.21 57.5 750.08 0.00 71.6
07/10/2018 19:00 2.24 60.8 750.09 0.00 71.9
07/10/2018 18:00 2.25 61.9 750.09 0.01 74.1
07/10/2018 17:00 2.21 57.5 750.08 0.03 78.9
07/10/2018 16:00 2.21 57.5 750.08 0.00 86.1
07/10/2018 15:00 2.23 59.7 750.09 0.00 85.1
07/10/2018 14:00 2.25 61.9 750.09 0.00 83.6
07/10/2018 13:00 2.24 60.8 750.09 0.00 83.6
07/10/2018 12:00 2.23 59.7 750.08 0.00 83.9
07/10/2018 11:00 2.25 61.9 750.09 0.00 79.2
07/10/2018 10:00 2.26 63.1 750.09 0.00 68.9
07/10/2018 09:00 2.25 61.9 750.09 0.00 65.3
07/10/2018 08:00 2.27 64.2 750.10 0.00 64.6
07/10/2018 07:00 2.25 61.9 750.10 0.00 60.6
07/10/2018 06:00 2.27 64.2 750.10 0.00 59.9
07/10/2018 05:00 2.27 64.2 750.10 0.00 60.6
07/10/2018 04:00 2.27 64.2 750.10 0.00 61.1
07/10/2018 03:00 2.26 63.1 750.10 0.00 62.1
07/10/2018 02:00 2.26 63.1 750.10 0.00 63.0
07/10/2018 01:00 2.26 63.1 750.10 0.00 64.1
07/10/2018 00:00 2.27 64.2 750.10 0.00 65.9
07/09/2018 23:00 2.27 64.2 750.10 0.00 67.7
07/09/2018 22:00 2.28 65.4 750.10 0.00 70.5
07/09/2018 21:00 2.28 65.4 750.10 0.00 76.3
07/09/2018 20:00 2.28 65.4 750.11 0.00 82.3
07/09/2018 19:00 2.26 63.1 750.11 0.00 87.8
07/09/2018 18:00 2.26 63.1 750.10 0.00 88.7
07/09/2018 17:00 2.28 65.4 750.11 0.00 88.7
07/09/2018 16:00 2.29 66.5 750.11 0.00 88.1
07/09/2018 15:00 2.30 67.7 750.11 0.00 86.1
07/09/2018 14:00 2.29 66.5 750.11 0.00 83.2
07/09/2018 13:00 2.31 68.9 750.11 0.00 82.6
07/09/2018 12:00 2.31 68.9 750.11 0.00 81.1
07/09/2018 11:00 2.33 71.3 750.12 0.00 75.9
07/09/2018 10:00 2.31 68.9 750.11 0.00 67.4
07/09/2018 09:00 2.33 71.3 750.12 0.00 64.6
07/09/2018 08:00 2.33 71.3 750.12 0.00 59.0
07/09/2018 07:00 2.34 72.5 750.12 0.00 57.9
07/09/2018 06:00 2.35 73.8 750.13 0.00 57.1
07/09/2018 05:00 2.36 75.0 750.13 0.00 58.5
07/09/2018 04:00 2.36 75.0 750.13 0.00 58.8
07/09/2018 03:00 2.35 73.8 750.13 0.00 59.5
07/09/2018 02:00 2.35 73.8 750.13 0.00 60.3
07/09/2018 01:00 2.35 73.8 750.13 0.00 61.3
07/09/2018 00:00 2.35 73.8 750.13 0.00 63.1
07/08/2018 23:00 2.36 75.0 750.13 0.00 65.3
07/08/2018 22:00 2.36 75.0 750.13 0.00 68.6
07/08/2018 21:00 2.36 75.0 750.13 0.00 74.1
07/08/2018 20:00 2.35 73.8 750.13 0.00 78.9
07/08/2018 19:00 2.35 73.8 750.14 0.00 82.7
07/08/2018 18:00 2.34 72.5 750.14 0.00 82.9
07/08/2018 17:00 2.36 75.0 750.14 0.00 83.6
07/08/2018 16:00 -- -- -- -- --
07/08/2018 15:00 -- -- -- -- --
07/08/2018 14:00 -- -- -- -- --
07/08/2018 13:00 -- -- -- -- --
07/08/2018 12:00 -- -- -- -- --
07/08/2018 11:00 -- -- -- -- --
07/08/2018 10:00 -- -- -- -- --